TimeCST,TemperatureF,Dew PointF,Humidity,Sea Level PressureIn,VisibilityMPH,Wind Direction,Wind SpeedMPH,Gust SpeedMPH,PrecipitationIn,Events,Conditions,WindDirDegrees,DateUTC
12:15 AM,-4.0,-9.4,78,30.57,10.0,WSW,11.5,-,N/A,,Clear,250,2014-01-24 06:15:00
12:35 AM,-4.0,-9.4,78,30.56,10.0,WSW,10.4,-,N/A,,Clear,240,2014-01-24 06:35:00
12:55 AM,-4.0,-9.4,78,30.55,10.0,WSW,10.4,-,N/A,,Clear,250,2014-01-24 06:55:00
1:15 AM,-4.0,-9.4,78,30.55,10.0,WSW,8.1,-,N/A,,Clear,240,2014-01-24 07:15:00
1:35 AM,-4.0,-9.4,78,30.54,10.0,SW,9.2,-,N/A,,Clear,230,2014-01-24 07:35:00
1:55 AM,-4.0,-9.4,78,30.54,10.0,WSW,9.2,-,N/A,,Clear,240,2014-01-24 07:55:00
2:15 AM,-4.0,-9.4,78,30.54,10.0,SW,10.4,-,N/A,,Clear,230,2014-01-24 08:15:00
2:35 AM,-4.0,-9.4,78,30.54,10.0,SW,9.2,-,N/A,,Clear,230,2014-01-24 08:35:00
2:55 AM,-4.0,-7.6,85,30.52,10.0,SSW,8.1,-,N/A,,Clear,200,2014-01-24 08:55:00
3:15 AM,-4.0,-9.4,78,30.52,10.0,SSW,8.1,-,N/A,,Clear,210,2014-01-24 09:15:00
3:35 AM,-4.0,-7.6,85,30.50,10.0,SSW,8.1,-,N/A,,Clear,200,2014-01-24 09:35:00
3:55 AM,-4.0,-9.4,78,30.50,10.0,SSW,8.1,-,N/A,,Clear,200,2014-01-24 09:55:00
4:15 AM,-4.0,-7.6,85,30.49,10.0,SSW,8.1,-,N/A,,Clear,200,2014-01-24 10:15:00
4:35 AM,-4.0,-7.6,85,30.48,10.0,SSW,10.4,-,N/A,,Clear,210,2014-01-24 10:35:00
4:55 AM,-2.2,-7.6,78,30.47,10.0,SSW,11.5,-,N/A,,Clear,210,2014-01-24 10:55:00
5:15 AM,-4.0,-7.6,85,30.47,10.0,SSW,9.2,-,N/A,,Clear,210,2014-01-24 11:15:00
5:35 AM,-2.2,-7.6,78,30.44,10.0,SSW,11.5,-,N/A,,Clear,200,2014-01-24 11:35:00
5:55 AM,-2.2,-7.6,78,30.44,10.0,SSW,12.7,-,N/A,,Clear,200,2014-01-24 11:55:00
6:15 AM,-0.4,-5.8,78,30.42,10.0,SSW,13.8,-,N/A,,Clear,200,2014-01-24 12:15:00
6:35 AM,-0.4,-5.8,78,30.42,10.0,SSW,13.8,-,N/A,,Clear,200,2014-01-24 12:35:00
6:55 AM,-0.4,-5.8,78,30.41,10.0,SSW,12.7,-,N/A,,Clear,200,2014-01-24 12:55:00
7:15 AM,-0.4,-5.8,78,30.39,10.0,SSW,15.0,-,N/A,,Clear,200,2014-01-24 13:15:00
7:35 AM,1.4,-4.0,78,30.38,10.0,SSW,18.4,24.2,N/A,,Clear,200,2014-01-24 13:35:00
7:55 AM,1.4,-4.0,78,30.36,10.0,South,19.6,23.0,N/A,,Clear,190,2014-01-24 13:55:00
8:15 AM,3.2,-4.0,72,30.34,10.0,SSW,21.9,26.5,N/A,,Clear,200,2014-01-24 14:15:00
8:35 AM,5.0,-2.2,72,30.33,10.0,SSW,23.0,29.9,N/A,,Clear,210,2014-01-24 14:35:00
8:55 AM,5.0,-2.2,72,30.31,5.0,SSW,25.3,33.4,N/A,,Haze,210,2014-01-24 14:55:00
9:15 AM,6.8,-0.4,72,30.31,5.0,SSW,25.3,32.2,N/A,,Haze,210,2014-01-24 15:15:00
9:35 AM,8.6,1.4,73,30.28,4.0,SSW,27.6,35.7,N/A,,Haze,200,2014-01-24 15:35:00
9:55 AM,8.6,1.4,73,30.27,3.0,SSW,25.3,34.5,N/A,,Haze,210,2014-01-24 15:55:00
10:15 AM,10.4,3.2,73,30.26,4.0,SSW,25.3,33.4,N/A,,Haze,210,2014-01-24 16:15:00
10:35 AM,10.4,3.2,73,30.23,1.5,SSW,27.6,40.3,N/A,,Haze,210,2014-01-24 16:35:00
10:55 AM,12.2,3.2,67,30.21,2.5,SSW,29.9,41.4,N/A,,Haze,200,2014-01-24 16:55:00
11:15 AM,12.2,5.0,73,30.17,2.0,SSW,29.9,38.0,N/A,,Haze,200,2014-01-24 17:15:00
11:35 AM,14.0,5.0,67,30.13,1.5,SSW,32.2,42.6,N/A,,Haze,200,2014-01-24 17:35:00
11:55 AM,14.0,6.8,73,30.11,1.8,SSW,28.8,42.6,N/A,,Haze,200,2014-01-24 17:55:00
12:15 PM,15.8,6.8,68,30.08,3.0,SSW,29.9,36.8,N/A,,Haze,200,2014-01-24 18:15:00
12:35 PM,17.6,6.8,63,30.05,2.5,SSW,32.2,41.4,N/A,,Haze,200,2014-01-24 18:35:00
12:55 PM,17.6,6.8,63,30.02,4.0,South,28.8,38.0,N/A,,Haze,190,2014-01-24 18:55:00
1:15 PM,17.6,8.6,68,29.99,3.0,SSW,26.5,39.1,N/A,,Haze,200,2014-01-24 19:15:00
1:35 PM,17.6,8.6,68,29.98,4.0,South,27.6,35.7,N/A,,Haze,190,2014-01-24 19:35:00
1:55 PM,17.6,8.6,68,29.96,4.0,South,24.2,35.7,N/A,,Haze,190,2014-01-24 19:55:00
2:15 PM,19.4,8.6,63,29.94,4.0,South,25.3,35.7,N/A,,Haze,190,2014-01-24 20:15:00
2:35 PM,19.4,8.6,63,29.93,4.0,SSW,26.5,36.8,N/A,,Haze,200,2014-01-24 20:35:00
2:55 PM,19.4,10.4,68,29.91,5.0,SSW,28.8,35.7,N/A,,Haze,200,2014-01-24 20:55:00
3:15 PM,21.2,10.4,63,29.90,7.0,SSW,27.6,35.7,N/A,,Mostly Cloudy,200,2014-01-24 21:15:00
3:35 PM,21.2,8.6,58,29.89,7.0,SSW,25.3,32.2,N/A,,Scattered Clouds,210,2014-01-24 21:35:00
3:55 PM,21.2,10.4,63,29.88,10.0,SSW,26.5,32.2,N/A,,Mostly Cloudy,210,2014-01-24 21:55:00
4:15 PM,21.2,10.4,63,29.87,10.0,SSW,27.6,33.4,N/A,,Overcast,210,2014-01-24 22:15:00
4:35 PM,21.2,10.4,63,29.86,10.0,SSW,21.9,29.9,N/A,,Mostly Cloudy,200,2014-01-24 22:35:00
4:55 PM,21.2,10.4,63,29.86,10.0,SSW,23.0,27.6,N/A,,Overcast,200,2014-01-24 22:55:00
5:15 PM,21.2,10.4,63,29.85,10.0,SSW,20.7,26.5,N/A,,Mostly Cloudy,210,2014-01-24 23:15:00
5:35 PM,23.0,10.4,59,29.86,10.0,SSW,21.9,27.6,N/A,,Mostly Cloudy,210,2014-01-24 23:35:00
5:55 PM,23.0,10.4,59,29.84,10.0,SSW,25.3,33.4,N/A,,Overcast,210,2014-01-24 23:55:00
6:15 PM,23.0,10.4,59,29.84,10.0,SSW,24.2,29.9,N/A,,Overcast,210,2014-01-25 00:15:00
6:35 PM,23.0,10.4,59,29.82,7.0,SSW,25.3,35.7,N/A,,Overcast,210,2014-01-25 00:35:00
6:55 PM,23.0,10.4,59,29.82,10.0,SSW,24.2,33.4,N/A,,Overcast,210,2014-01-25 00:55:00
7:15 PM,23.0,12.2,63,29.81,5.0,SSW,26.5,29.9,N/A,Snow,Light Snow,210,2014-01-25 01:15:00
7:35 PM,23.0,14.0,68,29.80,2.5,SSW,24.2,34.5,N/A,Snow,Light Snow,210,2014-01-25 01:35:00
7:55 PM,21.2,17.6,86,29.78,1.8,SSW,24.2,34.5,N/A,Snow,Light Snow,210,2014-01-25 01:55:00
8:15 PM,21.2,19.4,93,29.77,0.8,SSW,24.2,34.5,N/A,Snow,Snow,210,2014-01-25 02:15:00
8:35 PM,21.2,19.4,93,29.74,1.5,SSW,25.3,29.9,N/A,Snow,Light Snow,210,2014-01-25 02:35:00
8:55 PM,21.2,19.4,93,29.72,1.2,SSW,24.2,29.9,N/A,Snow,Light Snow,200,2014-01-25 02:55:00
9:15 PM,21.2,19.4,93,29.71,1.0,SSW,25.3,32.2,N/A,Snow,Snow,210,2014-01-25 03:15:00
9:35 PM,23.0,21.2,93,29.69,1.0,SSW,23.0,35.7,N/A,Snow,Light Snow,210,2014-01-25 03:35:00
9:55 PM,23.0,21.2,93,29.67,1.2,SSW,24.2,32.2,N/A,Snow,Light Snow,210,2014-01-25 03:55:00
10:15 PM,23.0,21.2,93,29.66,1.8,SSW,23.0,32.2,N/A,Snow,Light Snow,210,2014-01-25 04:15:00
10:35 PM,23.0,21.2,93,29.65,1.2,SSW,26.5,32.2,N/A,Snow,Light Snow,210,2014-01-25 04:35:00
10:55 PM,23.0,21.2,93,29.63,1.5,SSW,24.2,33.4,N/A,Snow,Light Snow,210,2014-01-25 04:55:00
11:15 PM,23.0,21.2,93,29.61,1.2,SSW,26.5,33.4,N/A,Snow,Light Snow,210,2014-01-25 05:15:00
11:35 PM,23.0,21.2,93,29.59,1.5,SSW,24.2,32.2,N/A,Snow,Light Snow,200,2014-01-25 05:35:00
11:55 PM,23.0,23.0,100,29.57,1.2,SSW,24.2,28.8,N/A,Snow,Light Snow,200,2014-01-25 05:55:00